Time;durP1;ratioP1;P1;durP2;ratioP2;P2;SDS_P1;SDS_P2;PMS_P1;PMS_P2;Temp;Humidity;BMP_temperature;BMP_pressure;BME280_temperature;BME280_humidity;BME280_pressure;Samples;Min_cycle;Max_cycle;Signal;HPM_P1;HPM_P2
2022/01/14 00:00:15;;;;;;;10.80;7.70;;;4.00;99.90;;;;;;5030764;28;20195;-60
2022/01/14 00:02:40;;;;;;;11.30;8.33;;;4.00;99.90;;;;;;5034747;28;20194;-60
2022/01/14 00:05:06;;;;;;;11.63;7.73;;;4.00;99.90;;;;;;5027972;28;20195;-60
2022/01/14 00:07:32;;;;;;;11.67;8.97;;;4.10;99.90;;;;;;5030309;28;20202;-60
2022/01/14 00:09:57;;;;;;;14.00;9.37;;;4.10;99.90;;;;;;5021869;28;20489;-60
2022/01/14 00:12:27;;;;;;;12.50;8.03;;;4.10;99.90;;;;;;5018132;28;20260;-60
2022/01/14 00:15:23;;;;;;;12.05;8.25;;;4.10;99.90;;;;;;5030158;28;20163;-60
2022/01/14 00:17:44;;;;;;;12.77;9.18;;;4.10;99.90;;;;;;5027292;28;20198;-59
2022/01/14 00:20:10;;;;;;;10.57;7.67;;;4.10;99.90;;;;;;5028923;28;20190;-59
2022/01/14 00:22:36;;;;;;;10.60;7.82;;;4.20;99.90;;;;;;5023568;28;20314;-59
2022/01/14 00:33:05;;;;;;;14.57;9.93;;;4.10;99.90;;;;;;5028899;28;20606;-59
2022/01/14 00:35:31;;;;;;;12.02;8.77;;;4.10;99.90;;;;;;5029166;28;20904;-58
2022/01/14 00:37:57;;;;;;;14.43;9.68;;;4.10;99.90;;;;;;5028727;28;20198;-60
2022/01/14 00:40:22;;;;;;;11.77;8.60;;;4.10;99.90;;;;;;5028661;28;20661;-58
2022/01/14 00:42:49;;;;;;;12.63;8.63;;;4.00;99.90;;;;;;5027459;28;20741;-60
2022/01/14 00:45:15;;;;;;;13.75;9.27;;;3.90;99.90;;;;;;5030078;28;20598;-60
2022/01/14 00:47:40;;;;;;;13.63;9.20;;;3.90;99.90;;;;;;5037276;28;20215;-55
2022/01/14 00:50:12;;;;;;;15.40;9.67;;;3.80;99.90;;;;;;5027917;28;20512;-60
2022/01/14 00:52:39;;;;;;;11.40;8.65;;;3.80;99.90;;;;;;5036491;28;20285;-59
2022/01/14 00:55:07;;;;;;;14.05;9.25;;;3.80;99.90;;;;;;5047592;28;20209;-59
2022/01/14 01:00:22;;;;;;;13.77;9.68;;;3.70;99.90;;;;;;5038014;28;20195;-60
2022/01/14 01:02:48;;;;;;;14.77;9.13;;;3.60;99.90;;;;;;5035381;28;20194;-60
2022/01/14 01:05:14;;;;;;;13.47;9.13;;;3.50;99.90;;;;;;5038024;28;20197;-60
2022/01/14 01:07:42;;;;;;;14.00;9.38;;;3.50;99.90;;;;;;5032131;28;20557;-60
2022/01/14 01:10:10;;;;;;;12.00;9.27;;;3.50;99.90;;;;;;5036425;28;20552;-60
2022/01/14 01:12:47;;;;;;;13.80;9.27;;;3.50;99.90;;;;;;5031367;28;20213;-61
2022/01/14 01:15:15;;;;;;;15.18;9.45;;;3.40;99.90;;;;;;5049482;28;20185;-60
2022/01/14 01:17:41;;;;;;;16.60;9.98;;;3.40;99.90;;;;;;5026140;28;20187;-59
2022/01/14 01:20:13;;;;;;;14.27;8.80;;;3.50;99.90;;;;;;5033438;28;20257;-60
2022/01/14 01:22:39;;;;;;;12.55;8.98;;;3.40;99.90;;;;;;5036532;28;20536;-59
2022/01/14 01:25:08;;;;;;;13.20;9.27;;;3.40;99.90;;;;;;5035397;28;20186;-60
2022/01/14 01:27:38;;;;;;;16.42;10.05;;;3.40;99.90;;;;;;5033485;28;20221;-59
2022/01/14 01:30:27;;;;;;;12.60;8.80;;;3.40;99.90;;;;;;5047337;28;20177;-60
2022/01/14 01:32:53;;;;;;;14.73;9.70;;;3.30;99.90;;;;;;5030705;28;20605;-60
2022/01/14 01:35:19;;;;;;;12.63;8.70;;;3.30;99.90;;;;;;5045329;28;20198;-59
2022/01/14 01:37:45;;;;;;;14.90;9.68;;;3.30;99.90;;;;;;5030195;28;20198;-60
2022/01/14 01:40:14;;;;;;;14.87;9.40;;;3.30;99.90;;;;;;5032929;28;20671;-61
2022/01/14 01:42:42;;;;;;;13.73;8.85;;;3.30;99.90;;;;;;5032297;28;20476;-60
2022/01/14 01:45:10;;;;;;;13.35;9.02;;;3.30;99.90;;;;;;5029686;28;20246;-59
2022/01/14 01:47:37;;;;;;;16.55;9.75;;;3.20;99.90;;;;;;5031676;28;20281;-60
2022/01/14 01:50:16;;;;;;;12.60;9.52;;;3.30;99.90;;;;;;5046106;28;20221;-59
2022/01/14 01:52:42;;;;;;;11.80;8.52;;;3.20;99.90;;;;;;5030010;28;20191;-55
2022/01/14 01:55:08;;;;;;;15.70;9.80;;;3.20;99.90;;;;;;5052003;28;20239;-60
2022/01/14 01:57:34;;;;;;;13.85;9.90;;;3.20;99.90;;;;;;5043679;28;20277;-59
2022/01/14 02:00:00;;;;;;;13.77;9.63;;;3.20;99.90;;;;;;5030987;28;20191;-60
2022/01/14 02:02:26;;;;;;;13.70;9.50;;;3.10;99.90;;;;;;5038368;28;20235;-60
2022/01/14 02:04:52;;;;;;;15.40;9.20;;;3.10;99.90;;;;;;5029725;28;20445;-56
2022/01/14 02:07:18;;;;;;;16.80;9.73;;;3.10;99.90;;;;;;5030368;28;20800;-60
2022/01/14 02:09:43;;;;;;;15.30;9.70;;;3.00;99.90;;;;;;5030834;28;20662;-59
2022/01/14 02:12:11;;;;;;;16.00;10.83;;;3.00;99.90;;;;;;5045606;28;20424;-59
2022/01/14 02:23:02;;;;;;;14.35;9.40;;;2.80;99.90;;;;;;5001692;28;20680;-60
2022/01/14 02:25:29;;;;;;;14.50;10.13;;;2.80;99.90;;;;;;5006828;28;20198;-60
2022/01/14 02:27:58;;;;;;;17.40;10.50;;;2.70;99.90;;;;;;5004366;28;21000;-60
2022/01/14 02:30:24;;;;;;;16.50;11.10;;;2.80;99.90;;;;;;5002373;28;20223;-60
2022/01/14 02:32:50;;;;;;;15.98;10.65;;;2.80;99.90;;;;;;4992989;28;20696;-59
2022/01/14 02:35:16;;;;;;;16.83;11.70;;;2.70;99.90;;;;;;5007396;28;20273;-59
2022/01/14 02:37:42;;;;;;;21.00;12.10;;;2.80;99.90;;;;;;5006645;28;20199;-60
2022/01/14 02:40:08;;;;;;;17.30;12.20;;;2.80;99.90;;;;;;5019913;28;20517;-59
2022/01/14 02:42:34;;;;;;;16.40;10.57;;;2.90;99.90;;;;;;5007453;28;20446;-59
2022/01/14 02:45:04;;;;;;;18.00;11.50;;;3.00;99.90;;;;;;5008992;28;20188;-60
2022/01/14 02:47:30;;;;;;;17.65;11.23;;;3.10;99.90;;;;;;5006088;28;20216;-59
2022/01/14 02:49:56;;;;;;;16.67;11.53;;;3.10;99.90;;;;;;5008971;28;20226;-59
2022/01/14 02:55:18;;;;;;;15.55;10.40;;;3.20;99.90;;;;;;5023678;28;20191;-59
2022/01/14 02:57:46;;;;;;;19.02;11.80;;;3.30;99.90;;;;;;5030049;28;20175;-59
2022/01/14 03:00:13;;;;;;;15.90;11.73;;;3.30;99.90;;;;;;5030481;28;20279;-60
2022/01/14 03:02:43;;;;;;;19.25;11.68;;;3.30;99.90;;;;;;5031526;28;20191;-60
2022/01/14 03:05:08;;;;;;;16.38;11.27;;;3.30;99.90;;;;;;5042276;28;20187;-60
2022/01/14 03:07:36;;;;;;;19.20;13.00;;;3.30;99.90;;;;;;5029890;28;20218;-61
2022/01/14 03:10:02;;;;;;;20.60;13.73;;;3.40;99.90;;;;;;5031623;28;20539;-60
2022/01/14 03:12:28;;;;;;;16.63;11.50;;;3.50;99.90;;;;;;5041552;28;20596;-60
2022/01/14 03:14:53;;;;;;;23.53;13.07;;;3.40;99.90;;;;;;5034253;28;20270;-60
2022/01/14 03:17:19;;;;;;;18.40;12.90;;;3.40;99.90;;;;;;5035202;28;20175;-60
2022/01/14 03:19:46;;;;;;;19.87;13.00;;;3.50;99.90;;;;;;5032489;28;20191;-60
2022/01/14 03:22:27;;;;;;;18.88;12.73;;;3.50;99.90;;;;;;5035459;28;20456;-60
2022/01/14 03:27:19;;;;;;;18.50;12.30;;;3.50;99.90;;;;;;5041527;28;20235;-60
2022/01/14 03:29:45;;;;;;;24.50;13.88;;;3.50;99.90;;;;;;5031166;28;20758;-59
2022/01/14 03:32:11;;;;;;;21.33;13.67;;;3.50;99.90;;;;;;5037654;28;20183;-59
2022/01/14 03:34:37;;;;;;;20.77;13.10;;;3.50;99.90;;;;;;5033003;28;20262;-60
2022/01/14 03:37:03;;;;;;;21.80;13.82;;;3.50;99.90;;;;;;5036791;28;20181;-60
2022/01/14 03:39:28;;;;;;;22.25;13.45;;;3.50;99.90;;;;;;5037711;28;20186;-60
2022/01/14 03:41:54;;;;;;;20.73;14.10;;;3.50;99.90;;;;;;5050298;28;20186;-60
2022/01/14 03:44:20;;;;;;;20.53;14.07;;;3.50;99.90;;;;;;5038339;28;20501;-60
2022/01/14 03:46:46;;;;;;;18.53;13.30;;;3.50;99.90;;;;;;5050407;28;20202;-61
2022/01/14 03:49:12;;;;;;;21.23;14.30;;;3.50;99.90;;;;;;5035080;28;20982;-60
2022/01/14 03:51:37;;;;;;;19.90;13.83;;;3.50;99.90;;;;;;5048556;28;20186;-61
2022/01/14 03:54:03;;;;;;;22.50;13.87;;;3.60;99.90;;;;;;5039278;28;20493;-57
2022/01/14 03:56:29;;;;;;;25.40;15.53;;;3.50;99.90;;;;;;5033784;28;20199;-60
2022/01/14 03:58:55;;;;;;;21.67;13.80;;;3.50;99.90;;;;;;5026315;28;20217;-60
2022/01/14 04:01:21;;;;;;;21.50;14.73;;;3.50;99.90;;;;;;5044632;28;20186;-61
2022/01/14 04:03:48;;;;;;;21.85;14.48;;;3.50;99.90;;;;;;5037552;28;21183;-60
2022/01/14 04:06:14;;;;;;;23.67;15.30;;;3.40;99.90;;;;;;5037975;28;20221;-61
2022/01/14 04:08:40;;;;;;;20.75;13.75;;;3.40;99.90;;;;;;5029792;28;20270;-60
2022/01/14 04:11:08;;;;;;;23.60;15.17;;;3.40;99.90;;;;;;5043173;28;20277;-54
2022/01/14 04:13:50;;;;;;;23.20;14.88;;;3.50;99.90;;;;;;5043415;28;20474;-56
2022/01/14 04:16:18;;;;;;;23.35;13.65;;;3.50;99.90;;;;;;5048162;28;20183;-60
2022/01/14 04:18:44;;;;;;;21.52;13.75;;;3.40;99.90;;;;;;5041566;28;20817;-60
2022/01/14 04:21:10;;;;;;;21.87;13.80;;;3.40;99.90;;;;;;5040044;28;20195;-52
2022/01/14 04:23:36;;;;;;;22.00;13.87;;;3.40;99.90;;;;;;5029086;28;20528;-60
2022/01/14 04:26:02;;;;;;;20.73;13.17;;;3.40;99.90;;;;;;5027577;28;20640;-61
2022/01/14 04:28:30;;;;;;;24.02;13.40;;;3.50;99.90;;;;;;5029037;28;20610;-60
2022/01/14 04:30:56;;;;;;;21.55;13.68;;;3.50;99.90;;;;;;5028724;28;20187;-59
2022/01/14 04:33:23;;;;;;;22.00;13.60;;;3.50;99.90;;;;;;5029914;28;20672;-60
2022/01/14 04:35:49;;;;;;;17.60;12.52;;;3.50;99.90;;;;;;5027310;28;20187;-61
2022/01/14 04:38:15;;;;;;;21.27;12.40;;;3.50;99.90;;;;;;5018263;28;20195;-58
2022/01/14 04:40:41;;;;;;;18.83;12.27;;;3.50;99.90;;;;;;5027715;28;20461;-58
2022/01/14 04:43:07;;;;;;;17.87;12.17;;;3.50;99.90;;;;;;5029865;28;20174;-59
2022/01/14 04:48:04;;;;;;;19.55;13.40;;;3.60;99.90;;;;;;5029600;28;20234;-59
2022/01/14 04:50:30;;;;;;;19.20;13.05;;;3.60;99.90;;;;;;5028587;28;20253;-59
2022/01/14 04:52:56;;;;;;;19.60;12.90;;;3.50;99.90;;;;;;5028827;28;20198;-59
2022/01/14 04:55:24;;;;;;;20.10;12.67;;;3.60;99.90;;;;;;5027569;28;20265;-59
2022/01/14 04:57:51;;;;;;;20.55;12.93;;;3.60;99.90;;;;;;5027526;28;20183;-59
2022/01/14 05:00:23;;;;;;;19.02;12.45;;;3.60;99.90;;;;;;5027935;28;20186;-59
2022/01/14 05:02:52;;;;;;;20.17;12.60;;;3.60;99.90;;;;;;5028917;28;20179;-60
2022/01/14 05:05:20;;;;;;;17.52;11.98;;;3.60;99.90;;;;;;5026043;28;20183;-60
2022/01/14 05:07:47;;;;;;;17.23;11.90;;;3.70;99.90;;;;;;5027580;28;20205;-61
2022/01/14 05:10:33;;;;;;;17.05;11.85;;;3.70;99.90;;;;;;5026511;28;20218;-62
2022/01/14 05:13:00;;;;;;;17.30;11.82;;;3.70;99.90;;;;;;5031718;28;20212;-60
2022/01/14 05:15:25;;;;;;;18.60;12.23;;;3.60;99.90;;;;;;5038210;28;20183;-60
2022/01/14 05:17:51;;;;;;;17.63;12.90;;;3.60;99.90;;;;;;5035468;28;20194;-60
2022/01/14 05:20:17;;;;;;;15.00;10.70;;;3.60;99.90;;;;;;5047068;28;20262;-59
2022/01/14 05:22:43;;;;;;;19.33;12.77;;;3.60;99.90;;;;;;5032081;28;20249;-59
2022/01/14 05:25:11;;;;;;;17.58;12.45;;;3.60;99.90;;;;;;5041926;28;20251;-59
2022/01/14 05:27:37;;;;;;;14.77;11.38;;;3.60;99.90;;;;;;5023342;28;20201;-58
2022/01/14 05:30:05;;;;;;;22.60;12.77;;;3.70;99.90;;;;;;5036601;28;20186;-61
2022/01/14 05:32:30;;;;;;;22.85;12.38;;;3.70;99.90;;;;;;5029622;28;20195;-59
2022/01/14 05:34:56;;;;;;;19.93;12.07;;;3.60;99.90;;;;;;5033689;28;20187;-61
2022/01/14 05:37:22;;;;;;;25.80;13.33;;;3.70;99.90;;;;;;5026266;28;20259;-53
2022/01/14 05:39:47;;;;;;;22.20;11.63;;;3.70;99.90;;;;;;5031685;28;20269;-50
2022/01/14 05:42:13;;;;;;;21.70;13.33;;;3.70;99.90;;;;;;5025359;28;20588;-54
2022/01/14 05:44:38;;;;;;;20.03;13.53;;;3.70;99.90;;;;;;5023126;28;21079;-52
2022/01/14 05:47:05;;;;;;;20.20;12.43;;;3.70;99.90;;;;;;5027402;28;20310;-53
2022/01/14 05:49:30;;;;;;;20.15;12.98;;;3.80;99.90;;;;;;5025450;28;20228;-53
2022/01/14 05:51:56;;;;;;;21.90;13.30;;;3.80;99.90;;;;;;5033024;28;20187;-53
2022/01/14 05:54:22;;;;;;;18.73;12.43;;;3.80;99.90;;;;;;5037537;28;20182;-51
2022/01/14 05:56:48;;;;;;;20.13;12.45;;;3.80;99.90;;;;;;5031647;28;20442;-52
2022/01/14 05:59:14;;;;;;;18.23;12.03;;;3.80;99.90;;;;;;5031114;28;20372;-53
2022/01/14 06:01:40;;;;;;;24.85;17.00;;;3.80;99.90;;;;;;5026329;28;20489;-52
2022/01/14 06:04:07;;;;;;;19.05;11.95;;;3.80;99.90;;;;;;5037264;28;20269;-54
2022/01/14 06:06:33;;;;;;;16.80;11.70;;;3.80;99.90;;;;;;5047712;28;20201;-54
2022/01/14 06:09:00;;;;;;;16.15;11.77;;;3.90;99.90;;;;;;5042732;28;20271;-54
2022/01/14 06:11:26;;;;;;;14.82;10.00;;;3.80;99.90;;;;;;5023065;28;20687;-54
2022/01/14 06:13:52;;;;;;;16.58;11.95;;;3.80;99.90;;;;;;5027107;28;20206;-52
2022/01/14 06:16:17;;;;;;;17.33;10.97;;;3.80;99.90;;;;;;5029826;28;20198;-51
2022/01/14 06:18:43;;;;;;;17.37;11.47;;;3.80;99.90;;;;;;5027772;28;20183;-54
2022/01/14 06:21:09;;;;;;;17.83;12.70;;;3.80;99.90;;;;;;5030597;28;20190;-55
2022/01/14 06:23:35;;;;;;;18.50;12.05;;;3.80;99.90;;;;;;5032086;28;20781;-53
2022/01/14 06:26:01;;;;;;;18.10;11.70;;;3.90;99.90;;;;;;5032106;28;20186;-53
2022/01/14 06:28:27;;;;;;;17.25;12.02;;;3.80;99.90;;;;;;5030558;28;20175;-50
2022/01/14 06:30:53;;;;;;;23.17;14.97;;;3.80;99.90;;;;;;5032951;28;20962;-48
2022/01/14 06:33:19;;;;;;;24.43;18.53;;;3.80;99.90;;;;;;5029959;28;20233;-52
2022/01/14 06:35:45;;;;;;;26.80;16.77;;;3.70;99.90;;;;;;5028717;28;20884;-48
2022/01/14 06:38:11;;;;;;;24.87;16.13;;;3.70;99.90;;;;;;5031710;28;20195;-53
2022/01/14 06:40:37;;;;;;;26.37;16.40;;;3.60;99.90;;;;;;5032121;28;20194;-53
2022/01/14 06:43:04;;;;;;;24.88;15.23;;;3.60;99.90;;;;;;5031446;28;20232;-53
2022/01/14 06:45:31;;;;;;;26.40;15.70;;;3.50;99.90;;;;;;5032363;28;20190;-59
2022/01/14 06:47:57;;;;;;;26.20;14.60;;;3.50;99.90;;;;;;5029230;28;20202;-51
2022/01/14 06:50:23;;;;;;;25.53;15.70;;;3.40;99.90;;;;;;5040087;28;20260;-54
2022/01/14 06:52:48;;;;;;;28.20;16.20;;;3.30;99.90;;;;;;5037798;28;20182;-53
2022/01/14 06:55:14;;;;;;;23.90;16.00;;;3.20;99.90;;;;;;5031611;28;20281;-53
2022/01/14 06:57:40;;;;;;;26.10;15.53;;;3.10;99.90;;;;;;5043077;28;20190;-53
2022/01/14 07:00:16;;;;;;;23.20;15.47;;;3.10;99.90;;;;;;5030942;28;20465;-51
2022/01/14 07:02:42;;;;;;;29.23;16.73;;;3.10;99.90;;;;;;5043751;28;20512;-53
2022/01/14 07:05:09;;;;;;;29.00;16.43;;;2.90;99.90;;;;;;5035708;28;20711;-53
2022/01/14 07:07:36;;;;;;;26.80;14.55;;;2.80;99.90;;;;;;5047732;28;20232;-55
2022/01/14 07:10:04;;;;;;;26.20;16.30;;;2.70;99.90;;;;;;5050185;28;20221;-54
2022/01/14 07:12:38;;;;;;;25.60;15.60;;;2.60;99.90;;;;;;5041545;28;20265;-53
2022/01/14 07:15:08;;;;;;;27.70;15.55;;;2.60;99.90;;;;;;5029764;28;20198;-54
2022/01/14 07:17:34;;;;;;;29.23;15.77;;;2.50;99.90;;;;;;5027287;28;20187;-54
2022/01/14 07:20:06;;;;;;;25.50;15.33;;;2.50;99.90;;;;;;5043357;28;20190;-54
2022/01/14 07:22:31;;;;;;;27.40;15.45;;;2.50;99.90;;;;;;5031632;28;20487;-54
2022/01/14 07:24:58;;;;;;;30.40;17.60;;;2.40;99.90;;;;;;5032161;28;20535;-54
2022/01/14 07:27:23;;;;;;;28.05;16.85;;;2.40;99.90;;;;;;5039123;28;20294;-55
2022/01/14 07:29:49;;;;;;;29.33;17.37;;;2.30;99.90;;;;;;5046438;28;20577;-56
2022/01/14 07:32:15;;;;;;;28.57;16.63;;;2.30;99.90;;;;;;5048044;28;20186;-55
2022/01/14 07:34:40;;;;;;;27.97;16.23;;;2.30;99.90;;;;;;5039044;28;20178;-54
2022/01/14 07:37:06;;;;;;;24.80;16.03;;;2.30;99.90;;;;;;5038783;28;20183;-56
2022/01/14 07:39:31;;;;;;;29.07;16.00;;;2.30;99.90;;;;;;5029182;28;20553;-54
2022/01/14 07:41:57;;;;;;;27.77;16.00;;;2.30;99.90;;;;;;5013900;28;20199;-53
2022/01/14 07:44:22;;;;;;;27.77;15.57;;;2.30;99.90;;;;;;5024759;28;20659;-57
2022/01/14 07:46:48;;;;;;;28.93;16.03;;;2.30;99.90;;;;;;5029663;28;20213;-54
2022/01/14 07:49:14;;;;;;;25.30;15.60;;;2.30;99.90;;;;;;5031634;28;20235;-56
2022/01/14 07:51:40;;;;;;;30.33;17.40;;;2.40;99.90;;;;;;5033743;28;20429;-52
2022/01/14 07:54:06;;;;;;;28.60;17.80;;;2.40;99.90;;;;;;5033796;28;20210;-53
2022/01/14 07:56:33;;;;;;;30.88;18.38;;;2.40;99.90;;;;;;5029124;28;20430;-53
2022/01/14 07:58:59;;;;;;;26.88;16.92;;;2.50;99.90;;;;;;5026917;28;20266;-51
2022/01/14 08:01:26;;;;;;;30.37;16.53;;;2.60;99.90;;;;;;5023455;28;20188;-53
2022/01/14 08:03:52;;;;;;;24.70;16.38;;;2.70;99.90;;;;;;5028703;28;20208;-54
2022/01/14 08:06:17;;;;;;;30.43;17.13;;;2.90;99.90;;;;;;5033042;28;20219;-53
2022/01/14 08:08:43;;;;;;;26.73;16.97;;;2.90;99.90;;;;;;5029553;28;20187;-55
2022/01/14 08:11:09;;;;;;;29.70;17.30;;;3.00;99.90;;;;;;5029220;28;20182;-53
2022/01/14 08:13:34;;;;;;;31.20;18.70;;;3.10;99.90;;;;;;5027347;28;20241;-53
2022/01/14 08:16:00;;;;;;;28.40;17.10;;;3.30;99.90;;;;;;5027813;28;20260;-54
2022/01/14 08:18:25;;;;;;;30.00;17.70;;;3.50;99.90;;;;;;5028738;28;20183;-52
2022/01/14 08:20:51;;;;;;;27.53;15.43;;;3.80;99.90;;;;;;5028727;28;20732;-54
2022/01/14 08:23:19;;;;;;;26.80;16.10;;;4.10;99.90;;;;;;5028067;28;20232;-55
2022/01/14 08:25:45;;;;;;;23.38;14.63;;;4.60;99.90;;;;;;5032531;28;20367;-54
2022/01/14 08:28:10;;;;;;;15.45;10.20;;;5.10;99.90;;;;;;5028788;28;20226;-55
2022/01/14 08:30:36;;;;;;;16.83;11.40;;;5.70;99.90;;;;;;5027415;28;20772;-55
2022/01/14 08:33:01;;;;;;;15.40;10.70;;;6.30;99.90;;;;;;5021925;28;20274;-53
2022/01/14 08:35:27;;;;;;;10.60;8.40;;;6.70;99.90;;;;;;5021997;28;20965;-56
2022/01/14 08:37:53;;;;;;;10.97;8.80;;;7.10;99.90;;;;;;5023219;28;21406;-53
2022/01/14 08:40:19;;;;;;;11.10;8.77;;;7.30;99.90;;;;;;5023643;28;20195;-53
2022/01/14 08:42:47;;;;;;;11.67;8.80;;;7.60;99.90;;;;;;5027027;28;20190;-51
2022/01/14 08:45:18;;;;;;;10.87;9.37;;;7.90;99.90;;;;;;5027348;28;20421;-55
2022/01/14 08:47:43;;;;;;;10.73;7.80;;;8.30;99.90;;;;;;5028850;28;20458;-52
2022/01/14 08:50:09;;;;;;;12.00;9.00;;;8.50;99.60;;;;;;5027427;28;21146;-54
2022/01/14 08:52:34;;;;;;;9.23;8.23;;;8.60;99.10;;;;;;5027651;28;20214;-53
2022/01/14 08:55:00;;;;;;;13.50;9.30;;;8.50;98.80;;;;;;5029115;28;20253;-53
2022/01/14 08:57:26;;;;;;;11.83;9.50;;;8.30;99.20;;;;;;5027616;28;20229;-53
2022/01/14 08:59:51;;;;;;;9.80;8.50;;;7.70;99.70;;;;;;5023452;28;20687;-54
2022/01/14 09:02:17;;;;;;;11.20;8.50;;;7.40;99.90;;;;;;5029683;28;20194;-54
2022/01/14 09:04:43;;;;;;;11.87;8.47;;;7.10;99.90;;;;;;5029833;28;20187;-55
2022/01/14 09:07:08;;;;;;;10.60;9.30;;;6.90;99.90;;;;;;5027630;28;20457;-55
2022/01/14 09:09:34;;;;;;;11.17;8.17;;;6.70;99.90;;;;;;5028559;28;20194;-54
2022/01/14 09:12:00;;;;;;;11.13;8.83;;;6.50;99.90;;;;;;5028852;28;20569;-54
2022/01/14 09:14:26;;;;;;;10.68;8.70;;;6.20;99.90;;;;;;5027223;28;20233;-60
2022/01/14 09:16:51;;;;;;;12.33;8.20;;;6.00;99.90;;;;;;5029077;28;20175;-60
2022/01/14 09:19:17;;;;;;;10.80;8.90;;;5.80;99.90;;;;;;5021232;28;20198;-60
2022/01/14 09:21:44;;;;;;;11.93;8.40;;;5.60;99.90;;;;;;5033012;28;20190;-60
2022/01/14 09:24:10;;;;;;;11.70;9.00;;;5.60;99.90;;;;;;5048851;28;20236;-60
2022/01/14 09:26:37;;;;;;;12.75;9.10;;;5.40;99.90;;;;;;5033682;28;20207;-60
2022/01/14 09:29:05;;;;;;;12.95;10.45;;;5.30;99.90;;;;;;5028434;28;20167;-59
2022/01/14 09:31:31;;;;;;;15.13;9.50;;;5.10;99.90;;;;;;5025645;28;20193;-59
2022/01/14 09:33:57;;;;;;;14.73;9.97;;;5.00;99.90;;;;;;5026650;28;20190;-60
2022/01/14 09:36:23;;;;;;;17.88;11.73;;;4.90;99.90;;;;;;5027398;28;20183;-60
2022/01/14 09:38:48;;;;;;;17.47;11.93;;;4.70;99.90;;;;;;5025068;28;20198;-62
2022/01/14 09:41:17;;;;;;;17.27;11.67;;;4.70;99.90;;;;;;5026956;28;20410;-60
2022/01/14 09:43:44;;;;;;;20.00;13.52;;;4.70;99.90;;;;;;5027308;28;20456;-59
2022/01/14 09:46:11;;;;;;;20.75;12.88;;;4.60;99.90;;;;;;5027047;28;20197;-60
2022/01/14 09:48:37;;;;;;;23.70;14.38;;;4.70;99.90;;;;;;5028003;28;20238;-59
2022/01/14 09:51:03;;;;;;;26.63;13.90;;;4.50;99.90;;;;;;5031564;28;20214;-60
2022/01/14 09:53:31;;;;;;;21.23;13.60;;;4.40;99.90;;;;;;5029119;28;20586;-60
2022/01/14 09:55:57;;;;;;;21.73;14.20;;;4.30;99.90;;;;;;5028833;28;20206;-61
2022/01/14 09:58:27;;;;;;;21.30;14.23;;;4.20;99.90;;;;;;5034203;28;20206;-61
2022/01/14 10:01:16;;;;;;;27.08;15.65;;;4.20;99.90;;;;;;5029299;28;20947;-60
2022/01/14 10:03:53;;;;;;;23.10;15.35;;;4.20;99.90;;;;;;5028667;28;20554;-61
2022/01/14 10:06:44;;;;;;;26.88;15.77;;;4.30;99.90;;;;;;5030022;28;20186;-61
2022/01/14 10:09:17;;;;;;;26.63;16.02;;;4.20;99.90;;;;;;5031534;28;20537;-61
2022/01/14 10:11:57;;;;;;;21.98;14.60;;;4.20;99.90;;;;;;5030651;28;20209;-60
2022/01/14 10:14:23;;;;;;;26.80;15.18;;;4.10;99.90;;;;;;5023889;28;20309;-56
2022/01/14 10:16:57;;;;;;;24.20;15.53;;;4.10;99.90;;;;;;5020504;28;20274;-53
2022/01/14 10:19:24;;;;;;;22.52;14.68;;;4.10;99.90;;;;;;5033487;28;20593;-52
2022/01/14 10:21:51;;;;;;;22.77;15.30;;;4.10;99.90;;;;;;5031859;28;20520;-53
2022/01/14 10:24:18;;;;;;;21.58;15.35;;;4.10;99.90;;;;;;5032952;28;20229;-59
2022/01/14 10:26:53;;;;;;;21.55;14.75;;;4.00;99.90;;;;;;5034633;28;20218;-56
2022/01/14 10:29:39;;;;;;;23.58;14.20;;;3.90;99.90;;;;;;5029116;28;20183;-53
2022/01/14 10:32:06;;;;;;;21.20;14.95;;;3.90;99.90;;;;;;5036765;28;20607;-55
2022/01/14 10:34:33;;;;;;;23.50;13.95;;;4.00;99.90;;;;;;5029630;28;20171;-56
2022/01/14 10:37:16;;;;;;;25.13;14.30;;;4.00;99.90;;;;;;5027655;28;20194;-57
2022/01/14 10:39:48;;;;;;;23.55;14.63;;;4.00;99.90;;;;;;5028687;28;20209;-55
2022/01/14 10:42:29;;;;;;;24.70;15.20;;;4.00;99.90;;;;;;5025136;28;20183;-53
2022/01/14 10:45:09;;;;;;;25.35;14.25;;;3.90;99.90;;;;;;5029152;28;20711;-54
2022/01/14 10:47:35;;;;;;;26.17;13.60;;;3.90;99.90;;;;;;5029869;28;21087;-56
2022/01/14 10:50:00;;;;;;;23.03;15.37;;;3.70;99.90;;;;;;5030678;28;20227;-57
2022/01/14 10:52:27;;;;;;;23.67;12.17;;;3.60;99.90;;;;;;5027201;28;20503;-55
2022/01/14 10:54:55;;;;;;;23.38;14.25;;;3.70;99.90;;;;;;5032073;28;21010;-54
2022/01/14 10:57:26;;;;;;;25.90;15.07;;;3.60;99.90;;;;;;5030145;28;20202;-55
2022/01/14 10:59:55;;;;;;;25.95;13.27;;;3.70;99.90;;;;;;5037310;28;20194;-55
2022/01/14 11:02:39;;;;;;;24.80;14.30;;;3.70;99.90;;;;;;5027281;28;20603;-54
2022/01/14 11:05:16;;;;;;;21.23;14.32;;;3.70;99.90;;;;;;5031010;28;20191;-55
2022/01/14 11:07:43;;;;;;;25.67;15.20;;;3.70;99.90;;;;;;5035024;28;20228;-55
2022/01/14 11:10:37;;;;;;;23.70;15.30;;;3.70;99.90;;;;;;5040967;28;20240;-54
2022/01/14 11:13:06;;;;;;;20.70;14.02;;;3.80;99.90;;;;;;5033486;28;20209;-56
2022/01/14 11:15:32;;;;;;;21.33;14.00;;;3.80;99.90;;;;;;5033533;28;20652;-54
2022/01/14 11:18:01;;;;;;;22.88;14.68;;;3.70;99.90;;;;;;5045348;28;20198;-52
2022/01/14 11:20:32;;;;;;;22.80;13.60;;;3.70;99.90;;;;;;5017897;28;20206;-53
2022/01/14 11:23:14;;;;;;;24.52;14.68;;;3.70;99.90;;;;;;5036477;28;20711;-52
2022/01/14 11:25:50;;;;;;;23.58;15.10;;;3.70;99.90;;;;;;5036395;28;20191;-54
2022/01/14 11:28:23;;;;;;;21.40;13.20;;;3.80;99.90;;;;;;5040735;28;20207;-54
2022/01/14 11:30:49;;;;;;;24.52;13.52;;;3.80;99.90;;;;;;5040564;28;20535;-51
2022/01/14 11:33:16;;;;;;;22.03;13.07;;;3.80;99.90;;;;;;5029076;28;20188;-53
2022/01/14 11:35:53;;;;;;;19.58;12.95;;;3.80;99.90;;;;;;5025894;28;20179;-57
2022/01/14 11:38:37;;;;;;;24.60;14.20;;;4.00;99.90;;;;;;5031945;28;20190;-56
2022/01/14 11:41:03;;;;;;;25.35;15.48;;;4.10;99.90;;;;;;5025530;28;20873;-54
2022/01/14 11:43:42;;;;;;;23.40;14.70;;;4.10;99.90;;;;;;5029253;28;20207;-52
2022/01/14 11:46:11;;;;;;;21.45;14.15;;;4.00;99.90;;;;;;5026916;28;20183;-52
2022/01/14 11:48:45;;;;;;;24.80;15.18;;;4.10;99.90;;;;;;5025191;28;20253;-54
2022/01/14 11:51:14;;;;;;;23.05;13.95;;;4.10;99.90;;;;;;5029770;28;20685;-55
2022/01/14 11:53:54;;;;;;;23.13;13.80;;;4.10;99.90;;;;;;5024165;28;20931;-56
2022/01/14 11:56:32;;;;;;;25.00;14.50;;;4.20;99.90;;;;;;5029824;28;20185;-56
2022/01/14 11:59:20;;;;;;;23.90;14.85;;;4.30;99.90;;;;;;5045936;28;20190;-58
2022/01/14 12:01:48;;;;;;;24.05;14.20;;;4.20;99.90;;;;;;5031757;28;20179;-57
2022/01/14 12:04:14;;;;;;;26.60;15.63;;;4.20;99.90;;;;;;5022010;28;20183;-58
2022/01/14 12:06:54;;;;;;;22.60;13.95;;;4.10;99.90;;;;;;5029493;28;20211;-56
2022/01/14 12:09:22;;;;;;;22.20;13.20;;;4.20;99.90;;;;;;5025986;28;20525;-55
2022/01/14 12:12:30;;;;;;;26.17;15.77;;;4.30;99.90;;;;;;5017255;28;20190;-58
2022/01/14 12:14:59;;;;;;;24.00;15.45;;;4.40;99.90;;;;;;5030614;28;21939;-57
2022/01/14 12:17:35;;;;;;;27.60;16.20;;;4.40;99.90;;;;;;5022879;28;21784;-55
2022/01/14 12:20:15;;;;;;;25.23;15.63;;;4.40;99.90;;;;;;5027045;28;20178;-56
2022/01/14 12:22:42;;;;;;;27.75;16.35;;;4.40;99.90;;;;;;5030316;28;20328;-55
2022/01/14 12:25:09;;;;;;;24.33;15.15;;;4.40;99.90;;;;;;5025201;28;20198;-55
2022/01/14 12:27:44;;;;;;;22.45;14.13;;;4.40;99.90;;;;;;5025378;28;20214;-52
2022/01/14 12:30:14;;;;;;;27.48;15.90;;;4.40;99.90;;;;;;5018971;28;20183;-53
2022/01/14 12:32:42;;;;;;;26.08;14.15;;;4.40;99.90;;;;;;5019800;28;20202;-52
2022/01/14 12:35:10;;;;;;;26.65;16.00;;;4.50;99.90;;;;;;5028794;28;20190;-55
2022/01/14 12:37:39;;;;;;;23.05;14.88;;;4.40;99.90;;;;;;5025982;28;20217;-53
2022/01/14 12:40:07;;;;;;;22.73;14.30;;;4.40;99.90;;;;;;5025359;28;20778;-56
2022/01/14 12:42:33;;;;;;;24.42;15.35;;;4.40;99.90;;;;;;5022671;28;20182;-51
2022/01/14 12:45:00;;;;;;;27.53;15.17;;;4.50;99.90;;;;;;5008241;28;20180;-55
2022/01/14 12:47:31;;;;;;;27.85;15.45;;;4.40;99.90;;;;;;5016345;28;20470;-53
2022/01/14 12:50:03;;;;;;;24.20;15.10;;;4.50;99.90;;;;;;5016933;28;20227;-52
2022/01/14 12:52:38;;;;;;;25.15;16.02;;;4.50;99.90;;;;;;5017979;28;20182;-54
2022/01/14 12:55:06;;;;;;;25.05;15.38;;;4.50;99.90;;;;;;5027179;28;20181;-52
2022/01/14 12:57:32;;;;;;;24.95;14.25;;;4.40;99.90;;;;;;5027491;28;20217;-52
2022/01/14 12:59:58;;;;;;;28.30;16.60;;;4.40;99.90;;;;;;5027016;28;20229;-56
2022/01/14 13:02:26;;;;;;;25.07;15.47;;;4.40;99.90;;;;;;5022476;28;20876;-57
2022/01/14 13:05:21;;;;;;;26.33;15.45;;;4.40;99.90;;;;;;5023635;28;20277;-56
2022/01/14 13:07:48;;;;;;;26.65;15.27;;;4.50;99.90;;;;;;5029079;28;20203;-53
2022/01/14 13:10:16;;;;;;;24.25;15.40;;;4.60;99.90;;;;;;5036421;28;20554;-57